sensor_id;sensor_type;location;lat;lon;timestamp;P1;durP1;ratioP1;P2;durP2;ratioP2
40659;SDS011;26753;45.544;9.232;2022-11-12T00:00:25;73.05;;;34.92;;
40659;SDS011;26753;45.544;9.232;2022-11-12T00:02:50;89.82;;;35.45;;
40659;SDS011;26753;45.544;9.232;2022-11-12T00:05:16;72.82;;;34.00;;
40659;SDS011;26753;45.544;9.232;2022-11-12T00:07:42;131.25;;;35.30;;
40659;SDS011;26753;45.544;9.232;2022-11-12T00:10:08;64.97;;;34.63;;
40659;SDS011;26753;45.544;9.232;2022-11-12T00:12:33;66.30;;;33.85;;
40659;SDS011;26753;45.544;9.232;2022-11-12T00:14:59;80.78;;;34.80;;
40659;SDS011;26753;45.544;9.232;2022-11-12T00:17:25;66.20;;;33.38;;
40659;SDS011;26753;45.544;9.232;2022-11-12T00:19:50;72.50;;;33.08;;
40659;SDS011;26753;45.544;9.232;2022-11-12T00:22:17;89.95;;;32.60;;
40659;SDS011;26753;45.544;9.232;2022-11-12T00:24:43;86.18;;;33.60;;
40659;SDS011;26753;45.544;9.232;2022-11-12T00:27:09;121.53;;;33.00;;
40659;SDS011;26753;45.544;9.232;2022-11-12T00:29:35;107.65;;;32.55;;
40659;SDS011;26753;45.544;9.232;2022-11-12T00:32:00;89.90;;;30.20;;
40659;SDS011;26753;45.544;9.232;2022-11-12T00:34:26;193.90;;;31.95;;
40659;SDS011;26753;45.544;9.232;2022-11-12T00:36:52;101.00;;;32.25;;
40659;SDS011;26753;45.544;9.232;2022-11-12T00:39:17;94.30;;;30.60;;
40659;SDS011;26753;45.544;9.232;2022-11-12T00:41:43;76.68;;;29.77;;
40659;SDS011;26753;45.544;9.232;2022-11-12T00:44:08;91.10;;;29.35;;
40659;SDS011;26753;45.544;9.232;2022-11-12T00:46:34;65.63;;;27.52;;
40659;SDS011;26753;45.544;9.232;2022-11-12T00:49:00;63.10;;;28.20;;
40659;SDS011;26753;45.544;9.232;2022-11-12T00:51:25;96.32;;;27.95;;
40659;SDS011;26753;45.544;9.232;2022-11-12T00:53:51;52.20;;;26.60;;
40659;SDS011;26753;45.544;9.232;2022-11-12T00:56:16;64.45;;;27.08;;
40659;SDS011;26753;45.544;9.232;2022-11-12T00:58:42;69.25;;;27.70;;
40659;SDS011;26753;45.544;9.232;2022-11-12T01:01:11;96.07;;;29.63;;
40659;SDS011;26753;45.544;9.232;2022-11-12T01:03:39;65.75;;;27.88;;
40659;SDS011;26753;45.544;9.232;2022-11-12T01:06:07;61.03;;;27.67;;
40659;SDS011;26753;45.544;9.232;2022-11-12T01:08:38;73.20;;;29.27;;
40659;SDS011;26753;45.544;9.232;2022-11-12T01:11:05;84.10;;;29.10;;
40659;SDS011;26753;45.544;9.232;2022-11-12T01:13:31;64.38;;;28.48;;
40659;SDS011;26753;45.544;9.232;2022-11-12T01:15:56;89.93;;;29.75;;
40659;SDS011;26753;45.544;9.232;2022-11-12T01:18:22;69.90;;;29.38;;
40659;SDS011;26753;45.544;9.232;2022-11-12T01:20:48;85.53;;;29.38;;
40659;SDS011;26753;45.544;9.232;2022-11-12T01:23:14;147.20;;;29.95;;
40659;SDS011;26753;45.544;9.232;2022-11-12T01:25:39;82.88;;;27.55;;
40659;SDS011;26753;45.544;9.232;2022-11-12T01:28:07;123.18;;;29.40;;
40659;SDS011;26753;45.544;9.232;2022-11-12T01:30:32;80.45;;;29.45;;
40659;SDS011;26753;45.544;9.232;2022-11-12T01:32:58;89.53;;;30.83;;
40659;SDS011;26753;45.544;9.232;2022-11-12T01:35:24;84.28;;;31.48;;
40659;SDS011;26753;45.544;9.232;2022-11-12T01:37:49;90.32;;;32.72;;
40659;SDS011;26753;45.544;9.232;2022-11-12T01:40:15;89.30;;;31.83;;
40659;SDS011;26753;45.544;9.232;2022-11-12T01:42:41;93.13;;;30.90;;
40659;SDS011;26753;45.544;9.232;2022-11-12T01:45:13;97.25;;;30.73;;
40659;SDS011;26753;45.544;9.232;2022-11-12T01:47:40;66.80;;;30.58;;
40659;SDS011;26753;45.544;9.232;2022-11-12T01:50:24;91.80;;;31.30;;
40659;SDS011;26753;45.544;9.232;2022-11-12T01:52:57;142.98;;;31.05;;
40659;SDS011;26753;45.544;9.232;2022-11-12T01:55:27;82.90;;;31.30;;
40659;SDS011;26753;45.544;9.232;2022-11-12T01:58:03;77.03;;;30.00;;
40659;SDS011;26753;45.544;9.232;2022-11-12T02:00:32;73.45;;;30.70;;
40659;SDS011;26753;45.544;9.232;2022-11-12T02:03:01;72.85;;;31.20;;
40659;SDS011;26753;45.544;9.232;2022-11-12T02:05:32;60.65;;;29.02;;
40659;SDS011;26753;45.544;9.232;2022-11-12T02:07:59;95.28;;;30.48;;
40659;SDS011;26753;45.544;9.232;2022-11-12T02:10:26;63.30;;;29.05;;
40659;SDS011;26753;45.544;9.232;2022-11-12T02:12:52;51.28;;;27.65;;
40659;SDS011;26753;45.544;9.232;2022-11-12T02:15:37;49.40;;;27.65;;
40659;SDS011;26753;45.544;9.232;2022-11-12T02:18:04;55.75;;;27.52;;
40659;SDS011;26753;45.544;9.232;2022-11-12T02:20:37;88.32;;;28.45;;
40659;SDS011;26753;45.544;9.232;2022-11-12T02:23:03;46.03;;;27.25;;
40659;SDS011;26753;45.544;9.232;2022-11-12T02:25:34;48.53;;;27.55;;
40659;SDS011;26753;45.544;9.232;2022-11-12T02:28:02;52.92;;;27.35;;
40659;SDS011;26753;45.544;9.232;2022-11-12T02:30:39;55.90;;;27.42;;
40659;SDS011;26753;45.544;9.232;2022-11-12T02:33:09;55.17;;;28.00;;
40659;SDS011;26753;45.544;9.232;2022-11-12T02:35:35;45.38;;;26.77;;
40659;SDS011;26753;45.544;9.232;2022-11-12T02:38:01;43.08;;;25.85;;
40659;SDS011;26753;45.544;9.232;2022-11-12T02:40:27;47.95;;;26.42;;
40659;SDS011;26753;45.544;9.232;2022-11-12T02:42:52;49.45;;;27.77;;
40659;SDS011;26753;45.544;9.232;2022-11-12T02:45:18;48.58;;;26.38;;
40659;SDS011;26753;45.544;9.232;2022-11-12T02:47:45;49.70;;;26.05;;
40659;SDS011;26753;45.544;9.232;2022-11-12T02:50:11;44.28;;;25.88;;
40659;SDS011;26753;45.544;9.232;2022-11-12T02:52:36;61.55;;;26.02;;
40659;SDS011;26753;45.544;9.232;2022-11-12T02:55:04;48.58;;;26.55;;
40659;SDS011;26753;45.544;9.232;2022-11-12T02:57:31;63.58;;;26.27;;
40659;SDS011;26753;45.544;9.232;2022-11-12T02:59:57;58.25;;;27.88;;
40659;SDS011;26753;45.544;9.232;2022-11-12T03:02:23;137.80;;;28.95;;
40659;SDS011;26753;45.544;9.232;2022-11-12T03:04:49;97.05;;;28.73;;
40659;SDS011;26753;45.544;9.232;2022-11-12T03:07:14;72.28;;;28.88;;
40659;SDS011;26753;45.544;9.232;2022-11-12T03:09:40;57.40;;;27.33;;
40659;SDS011;26753;45.544;9.232;2022-11-12T03:12:06;67.15;;;27.55;;
40659;SDS011;26753;45.544;9.232;2022-11-12T03:14:32;48.35;;;26.60;;
40659;SDS011;26753;45.544;9.232;2022-11-12T03:16:58;47.60;;;25.92;;
40659;SDS011;26753;45.544;9.232;2022-11-12T03:19:24;45.50;;;24.67;;
40659;SDS011;26753;45.544;9.232;2022-11-12T03:21:50;38.72;;;24.55;;
40659;SDS011;26753;45.544;9.232;2022-11-12T03:24:15;38.80;;;24.88;;
40659;SDS011;26753;45.544;9.232;2022-11-12T03:26:41;37.60;;;24.55;;
40659;SDS011;26753;45.544;9.232;2022-11-12T03:29:07;37.15;;;24.42;;
40659;SDS011;26753;45.544;9.232;2022-11-12T03:31:34;36.22;;;23.60;;
40659;SDS011;26753;45.544;9.232;2022-11-12T03:34:00;31.75;;;21.70;;
40659;SDS011;26753;45.544;9.232;2022-11-12T03:36:26;32.65;;;22.20;;
40659;SDS011;26753;45.544;9.232;2022-11-12T03:38:52;30.23;;;20.52;;
40659;SDS011;26753;45.544;9.232;2022-11-12T03:41:17;34.85;;;23.88;;
40659;SDS011;26753;45.544;9.232;2022-11-12T03:43:43;42.20;;;26.20;;
40659;SDS011;26753;45.544;9.232;2022-11-12T03:46:09;45.08;;;27.80;;
40659;SDS011;26753;45.544;9.232;2022-11-12T03:48:35;49.75;;;29.38;;
40659;SDS011;26753;45.544;9.232;2022-11-12T03:51:01;45.72;;;27.67;;
40659;SDS011;26753;45.544;9.232;2022-11-12T03:53:26;37.70;;;25.35;;
40659;SDS011;26753;45.544;9.232;2022-11-12T03:55:52;36.95;;;24.13;;
40659;SDS011;26753;45.544;9.232;2022-11-12T03:58:18;35.40;;;24.20;;
40659;SDS011;26753;45.544;9.232;2022-11-12T04:00:44;32.38;;;23.73;;
40659;SDS011;26753;45.544;9.232;2022-11-12T04:03:10;30.48;;;21.52;;
40659;SDS011;26753;45.544;9.232;2022-11-12T04:05:36;30.38;;;21.35;;
40659;SDS011;26753;45.544;9.232;2022-11-12T04:08:20;28.10;;;20.33;;
40659;SDS011;26753;45.544;9.232;2022-11-12T04:11:00;28.90;;;19.90;;
40659;SDS011;26753;45.544;9.232;2022-11-12T04:13:27;27.80;;;19.63;;
40659;SDS011;26753;45.544;9.232;2022-11-12T04:15:54;26.73;;;19.58;;
40659;SDS011;26753;45.544;9.232;2022-11-12T04:18:49;25.20;;;18.80;;
40659;SDS011;26753;45.544;9.232;2022-11-12T04:21:43;27.30;;;18.73;;
40659;SDS011;26753;45.544;9.232;2022-11-12T04:24:16;24.55;;;19.15;;
40659;SDS011;26753;45.544;9.232;2022-11-12T04:27:05;23.33;;;17.90;;
40659;SDS011;26753;45.544;9.232;2022-11-12T04:29:35;22.40;;;17.45;;
40659;SDS011;26753;45.544;9.232;2022-11-12T04:32:20;25.70;;;18.33;;
40659;SDS011;26753;45.544;9.232;2022-11-12T04:34:49;24.48;;;18.52;;
40659;SDS011;26753;45.544;9.232;2022-11-12T04:37:15;33.38;;;19.58;;
40659;SDS011;26753;45.544;9.232;2022-11-12T04:39:43;83.13;;;18.45;;
40659;SDS011;26753;45.544;9.232;2022-11-12T04:42:09;54.70;;;19.70;;
40659;SDS011;26753;45.544;9.232;2022-11-12T04:44:56;107.15;;;20.63;;
40659;SDS011;26753;45.544;9.232;2022-11-12T04:47:36;39.40;;;19.77;;
40659;SDS011;26753;45.544;9.232;2022-11-12T04:50:05;39.70;;;20.05;;
40659;SDS011;26753;45.544;9.232;2022-11-12T04:52:36;27.70;;;19.52;;
40659;SDS011;26753;45.544;9.232;2022-11-12T04:55:03;29.02;;;20.02;;
40659;SDS011;26753;45.544;9.232;2022-11-12T04:57:29;27.33;;;19.63;;
40659;SDS011;26753;45.544;9.232;2022-11-12T04:59:57;27.77;;;19.75;;
40659;SDS011;26753;45.544;9.232;2022-11-12T05:02:23;26.20;;;19.50;;
40659;SDS011;26753;45.544;9.232;2022-11-12T05:04:48;30.52;;;20.80;;
40659;SDS011;26753;45.544;9.232;2022-11-12T05:07:14;27.67;;;19.92;;
40659;SDS011;26753;45.544;9.232;2022-11-12T05:09:41;27.48;;;18.85;;
40659;SDS011;26753;45.544;9.232;2022-11-12T05:12:07;25.65;;;18.85;;
40659;SDS011;26753;45.544;9.232;2022-11-12T05:14:36;26.40;;;18.02;;
40659;SDS011;26753;45.544;9.232;2022-11-12T05:17:02;26.33;;;18.88;;
40659;SDS011;26753;45.544;9.232;2022-11-12T05:19:28;24.98;;;18.42;;
40659;SDS011;26753;45.544;9.232;2022-11-12T05:21:54;27.52;;;18.13;;
40659;SDS011;26753;45.544;9.232;2022-11-12T05:24:33;27.05;;;17.67;;
40659;SDS011;26753;45.544;9.232;2022-11-12T05:27:08;28.17;;;20.17;;
40659;SDS011;26753;45.544;9.232;2022-11-12T05:29:42;24.77;;;18.05;;
40659;SDS011;26753;45.544;9.232;2022-11-12T05:32:09;22.80;;;17.65;;
40659;SDS011;26753;45.544;9.232;2022-11-12T05:34:37;22.75;;;17.08;;
40659;SDS011;26753;45.544;9.232;2022-11-12T05:37:04;24.70;;;17.15;;
40659;SDS011;26753;45.544;9.232;2022-11-12T05:39:31;24.27;;;17.15;;
40659;SDS011;26753;45.544;9.232;2022-11-12T05:42:01;22.75;;;17.25;;
40659;SDS011;26753;45.544;9.232;2022-11-12T05:44:36;25.27;;;17.35;;
40659;SDS011;26753;45.544;9.232;2022-11-12T05:47:02;24.45;;;17.85;;
40659;SDS011;26753;45.544;9.232;2022-11-12T05:49:28;25.40;;;18.38;;
40659;SDS011;26753;45.544;9.232;2022-11-12T05:51:55;25.02;;;18.00;;
40659;SDS011;26753;45.544;9.232;2022-11-12T05:54:21;24.98;;;17.75;;
40659;SDS011;26753;45.544;9.232;2022-11-12T05:56:50;25.58;;;18.70;;
40659;SDS011;26753;45.544;9.232;2022-11-12T05:59:16;24.88;;;18.50;;
40659;SDS011;26753;45.544;9.232;2022-11-12T06:01:42;29.40;;;20.30;;
40659;SDS011;26753;45.544;9.232;2022-11-12T06:04:11;28.95;;;19.55;;
40659;SDS011;26753;45.544;9.232;2022-11-12T06:06:39;26.35;;;18.52;;
40659;SDS011;26753;45.544;9.232;2022-11-12T06:09:05;23.42;;;16.48;;
40659;SDS011;26753;45.544;9.232;2022-11-12T06:11:32;23.08;;;16.27;;
40659;SDS011;26753;45.544;9.232;2022-11-12T06:13:58;23.27;;;16.33;;
40659;SDS011;26753;45.544;9.232;2022-11-12T06:16:24;27.15;;;17.00;;
40659;SDS011;26753;45.544;9.232;2022-11-12T06:18:50;20.98;;;15.80;;
40659;SDS011;26753;45.544;9.232;2022-11-12T06:21:16;22.08;;;14.25;;
40659;SDS011;26753;45.544;9.232;2022-11-12T06:23:45;18.58;;;13.90;;
40659;SDS011;26753;45.544;9.232;2022-11-12T06:26:12;21.17;;;14.55;;
40659;SDS011;26753;45.544;9.232;2022-11-12T06:28:41;21.20;;;13.57;;
40659;SDS011;26753;45.544;9.232;2022-11-12T06:31:10;20.83;;;12.90;;
40659;SDS011;26753;45.544;9.232;2022-11-12T06:33:36;19.52;;;12.68;;
40659;SDS011;26753;45.544;9.232;2022-11-12T06:36:09;18.33;;;12.52;;
40659;SDS011;26753;45.544;9.232;2022-11-12T06:38:37;18.20;;;12.77;;
40659;SDS011;26753;45.544;9.232;2022-11-12T06:41:04;20.67;;;13.23;;
40659;SDS011;26753;45.544;9.232;2022-11-12T06:43:31;18.58;;;13.25;;
40659;SDS011;26753;45.544;9.232;2022-11-12T06:45:58;18.77;;;12.88;;
40659;SDS011;26753;45.544;9.232;2022-11-12T06:48:28;18.80;;;12.93;;
40659;SDS011;26753;45.544;9.232;2022-11-12T06:50:54;20.70;;;13.10;;
40659;SDS011;26753;45.544;9.232;2022-11-12T06:53:21;18.80;;;12.20;;
40659;SDS011;26753;45.544;9.232;2022-11-12T06:55:47;18.40;;;12.70;;
40659;SDS011;26753;45.544;9.232;2022-11-12T06:58:12;19.98;;;12.98;;
40659;SDS011;26753;45.544;9.232;2022-11-12T07:00:38;17.20;;;12.40;;
40659;SDS011;26753;45.544;9.232;2022-11-12T07:03:07;18.38;;;12.80;;
40659;SDS011;26753;45.544;9.232;2022-11-12T07:05:43;19.48;;;13.10;;
40659;SDS011;26753;45.544;9.232;2022-11-12T07:08:08;20.52;;;13.45;;
40659;SDS011;26753;45.544;9.232;2022-11-12T07:10:34;19.27;;;13.45;;
40659;SDS011;26753;45.544;9.232;2022-11-12T07:13:00;21.70;;;13.70;;
40659;SDS011;26753;45.544;9.232;2022-11-12T07:15:26;21.95;;;13.27;;
40659;SDS011;26753;45.544;9.232;2022-11-12T07:17:52;19.35;;;12.55;;
40659;SDS011;26753;45.544;9.232;2022-11-12T07:20:18;18.70;;;13.05;;
40659;SDS011;26753;45.544;9.232;2022-11-12T07:22:44;18.00;;;13.13;;
40659;SDS011;26753;45.544;9.232;2022-11-12T07:25:16;21.20;;;14.40;;
40659;SDS011;26753;45.544;9.232;2022-11-12T07:27:44;19.38;;;13.77;;
40659;SDS011;26753;45.544;9.232;2022-11-12T07:30:14;22.25;;;13.55;;
40659;SDS011;26753;45.544;9.232;2022-11-12T07:32:41;20.27;;;13.52;;
40659;SDS011;26753;45.544;9.232;2022-11-12T07:35:07;18.30;;;13.40;;
40659;SDS011;26753;45.544;9.232;2022-11-12T07:37:33;21.83;;;14.38;;
40659;SDS011;26753;45.544;9.232;2022-11-12T07:40:04;20.38;;;13.93;;
40659;SDS011;26753;45.544;9.232;2022-11-12T07:42:33;19.35;;;14.50;;
40659;SDS011;26753;45.544;9.232;2022-11-12T07:45:00;18.38;;;13.23;;
40659;SDS011;26753;45.544;9.232;2022-11-12T07:47:26;19.50;;;14.68;;
40659;SDS011;26753;45.544;9.232;2022-11-12T07:49:52;20.90;;;15.57;;
40659;SDS011;26753;45.544;9.232;2022-11-12T07:52:18;18.30;;;14.77;;
40659;SDS011;26753;45.544;9.232;2022-11-12T07:54:44;21.90;;;15.93;;
40659;SDS011;26753;45.544;9.232;2022-11-12T07:57:10;21.38;;;14.77;;
40659;SDS011;26753;45.544;9.232;2022-11-12T07:59:36;18.60;;;13.40;;
40659;SDS011;26753;45.544;9.232;2022-11-12T08:02:01;20.67;;;14.68;;
40659;SDS011;26753;45.544;9.232;2022-11-12T08:04:27;20.08;;;14.35;;
40659;SDS011;26753;45.544;9.232;2022-11-12T08:06:53;20.10;;;14.07;;
40659;SDS011;26753;45.544;9.232;2022-11-12T08:09:18;21.25;;;14.10;;
40659;SDS011;26753;45.544;9.232;2022-11-12T08:11:44;19.98;;;13.80;;
40659;SDS011;26753;45.544;9.232;2022-11-12T08:14:10;22.20;;;13.85;;
40659;SDS011;26753;45.544;9.232;2022-11-12T08:16:39;19.17;;;14.15;;
40659;SDS011;26753;45.544;9.232;2022-11-12T08:19:04;20.33;;;14.15;;
40659;SDS011;26753;45.544;9.232;2022-11-12T08:21:30;20.67;;;13.88;;
40659;SDS011;26753;45.544;9.232;2022-11-12T08:23:56;22.20;;;13.80;;
40659;SDS011;26753;45.544;9.232;2022-11-12T08:26:21;20.10;;;14.00;;
40659;SDS011;26753;45.544;9.232;2022-11-12T08:28:48;17.52;;;13.05;;
40659;SDS011;26753;45.544;9.232;2022-11-12T08:31:15;16.33;;;13.18;;
40659;SDS011;26753;45.544;9.232;2022-11-12T08:33:42;21.42;;;13.48;;
40659;SDS011;26753;45.544;9.232;2022-11-12T08:36:09;21.23;;;13.95;;
40659;SDS011;26753;45.544;9.232;2022-11-12T08:38:36;22.45;;;14.80;;
40659;SDS011;26753;45.544;9.232;2022-11-12T08:41:04;19.95;;;13.60;;
40659;SDS011;26753;45.544;9.232;2022-11-12T08:43:40;20.50;;;15.20;;
40659;SDS011;26753;45.544;9.232;2022-11-12T08:46:07;22.02;;;13.98;;
40659;SDS011;26753;45.544;9.232;2022-11-12T08:48:33;28.10;;;13.90;;
40659;SDS011;26753;45.544;9.232;2022-11-12T08:51:04;18.63;;;13.00;;
40659;SDS011;26753;45.544;9.232;2022-11-12T08:53:30;19.23;;;12.85;;
40659;SDS011;26753;45.544;9.232;2022-11-12T08:55:57;21.85;;;12.35;;
40659;SDS011;26753;45.544;9.232;2022-11-12T08:58:23;16.70;;;11.80;;
40659;SDS011;26753;45.544;9.232;2022-11-12T09:00:49;17.50;;;11.32;;
40659;SDS011;26753;45.544;9.232;2022-11-12T09:03:17;15.82;;;10.85;;
40659;SDS011;26753;45.544;9.232;2022-11-12T09:05:45;17.45;;;10.50;;
40659;SDS011;26753;45.544;9.232;2022-11-12T09:08:16;15.00;;;10.43;;
40659;SDS011;26753;45.544;9.232;2022-11-12T09:10:45;16.75;;;11.38;;
40659;SDS011;26753;45.544;9.232;2022-11-12T09:13:12;16.00;;;10.80;;
40659;SDS011;26753;45.544;9.232;2022-11-12T09:15:42;16.52;;;10.70;;
40659;SDS011;26753;45.544;9.232;2022-11-12T09:18:15;16.70;;;10.30;;
40659;SDS011;26753;45.544;9.232;2022-11-12T09:20:41;18.55;;;10.48;;
40659;SDS011;26753;45.544;9.232;2022-11-12T09:23:08;17.15;;;11.63;;
40659;SDS011;26753;45.544;9.232;2022-11-12T09:25:37;14.10;;;10.05;;
40659;SDS011;26753;45.544;9.232;2022-11-12T09:28:10;14.73;;;9.93;;
40659;SDS011;26753;45.544;9.232;2022-11-12T09:30:41;18.92;;;10.95;;
40659;SDS011;26753;45.544;9.232;2022-11-12T09:33:10;16.48;;;10.55;;
40659;SDS011;26753;45.544;9.232;2022-11-12T09:35:38;15.65;;;11.02;;
40659;SDS011;26753;45.544;9.232;2022-11-12T09:38:04;17.30;;;10.85;;
40659;SDS011;26753;45.544;9.232;2022-11-12T09:43:19;15.00;;;10.45;;
40659;SDS011;26753;45.544;9.232;2022-11-12T09:45:50;16.38;;;10.38;;
40659;SDS011;26753;45.544;9.232;2022-11-12T09:48:19;15.45;;;9.82;;
40659;SDS011;26753;45.544;9.232;2022-11-12T09:50:59;14.00;;;9.98;;
40659;SDS011;26753;45.544;9.232;2022-11-12T09:53:36;16.48;;;9.13;;
40659;SDS011;26753;45.544;9.232;2022-11-12T09:56:09;12.75;;;9.10;;
40659;SDS011;26753;45.544;9.232;2022-11-12T09:58:37;13.20;;;8.55;;
40659;SDS011;26753;45.544;9.232;2022-11-12T10:01:12;11.82;;;8.15;;
40659;SDS011;26753;45.544;9.232;2022-11-12T10:03:45;15.65;;;8.40;;
40659;SDS011;26753;45.544;9.232;2022-11-12T10:06:26;13.43;;;8.43;;
40659;SDS011;26753;45.544;9.232;2022-11-12T10:09:08;12.10;;;8.27;;
40659;SDS011;26753;45.544;9.232;2022-11-12T10:15:09;12.00;;;8.23;;
40659;SDS011;26753;45.544;9.232;2022-11-12T10:21:15;14.63;;;8.50;;
40659;SDS011;26753;45.544;9.232;2022-11-12T10:23:51;16.08;;;8.60;;
40659;SDS011;26753;45.544;9.232;2022-11-12T10:26:24;18.40;;;9.30;;
40659;SDS011;26753;45.544;9.232;2022-11-12T10:29:12;15.00;;;9.90;;
40659;SDS011;26753;45.544;9.232;2022-11-12T10:31:44;13.40;;;8.93;;
40659;SDS011;26753;45.544;9.232;2022-11-12T10:34:20;13.07;;;8.77;;
40659;SDS011;26753;45.544;9.232;2022-11-12T10:36:49;12.88;;;8.70;;
40659;SDS011;26753;45.544;9.232;2022-11-12T10:39:34;15.75;;;9.40;;
40659;SDS011;26753;45.544;9.232;2022-11-12T10:42:12;15.55;;;9.30;;
40659;SDS011;26753;45.544;9.232;2022-11-12T10:44:40;11.80;;;9.02;;
40659;SDS011;26753;45.544;9.232;2022-11-12T10:49:57;14.55;;;9.52;;
40659;SDS011;26753;45.544;9.232;2022-11-12T10:52:35;12.75;;;9.75;;
40659;SDS011;26753;45.544;9.232;2022-11-12T10:55:26;13.75;;;9.55;;
40659;SDS011;26753;45.544;9.232;2022-11-12T10:58:12;13.75;;;9.85;;
40659;SDS011;26753;45.544;9.232;2022-11-12T11:00:55;15.93;;;10.07;;
40659;SDS011;26753;45.544;9.232;2022-11-12T11:03:25;17.10;;;11.00;;
40659;SDS011;26753;45.544;9.232;2022-11-12T11:06:16;18.60;;;10.20;;
40659;SDS011;26753;45.544;9.232;2022-11-12T11:08:44;15.57;;;10.13;;
40659;SDS011;26753;45.544;9.232;2022-11-12T11:13:57;14.63;;;10.07;;
40659;SDS011;26753;45.544;9.232;2022-11-12T11:17:00;14.90;;;10.00;;
40659;SDS011;26753;45.544;9.232;2022-11-12T11:19:39;13.98;;;9.80;;
40659;SDS011;26753;45.544;9.232;2022-11-12T11:22:11;14.02;;;9.70;;
40659;SDS011;26753;45.544;9.232;2022-11-12T11:27:50;18.90;;;9.55;;
40659;SDS011;26753;45.544;9.232;2022-11-12T11:30:29;10.40;;;8.77;;
40659;SDS011;26753;45.544;9.232;2022-11-12T12:18:23;12.13;;;8.50;;
40659;SDS011;26753;45.544;9.232;2022-11-12T12:21:14;12.25;;;8.25;;
40659;SDS011;26753;45.544;9.232;2022-11-12T12:26:20;10.13;;;7.50;;
40659;SDS011;26753;45.544;9.232;2022-11-12T12:28:52;11.13;;;7.60;;
40659;SDS011;26753;45.544;9.232;2022-11-12T12:31:26;18.23;;;10.80;;
40659;SDS011;26753;45.544;9.232;2022-11-12T12:34:04;14.90;;;10.73;;
40659;SDS011;26753;45.544;9.232;2022-11-12T12:36:40;20.60;;;12.90;;
40659;SDS011;26753;45.544;9.232;2022-11-12T12:44:53;17.58;;;11.07;;
40659;SDS011;26753;45.544;9.232;2022-11-12T12:47:24;9.68;;;6.70;;
40659;SDS011;26753;45.544;9.232;2022-11-12T12:49:52;9.27;;;7.20;;
40659;SDS011;26753;45.544;9.232;2022-11-12T12:52:22;12.77;;;8.05;;
40659;SDS011;26753;45.544;9.232;2022-11-12T12:57:59;10.70;;;7.28;;
40659;SDS011;26753;45.544;9.232;2022-11-12T13:03:01;12.05;;;7.72;;
40659;SDS011;26753;45.544;9.232;2022-11-12T13:05:34;10.40;;;7.07;;
40659;SDS011;26753;45.544;9.232;2022-11-12T13:08:05;9.18;;;7.20;;
40659;SDS011;26753;45.544;9.232;2022-11-12T13:10:47;8.13;;;6.95;;
40659;SDS011;26753;45.544;9.232;2022-11-12T13:16:31;10.38;;;7.13;;
40659;SDS011;26753;45.544;9.232;2022-11-12T13:19:25;9.30;;;7.30;;
40659;SDS011;26753;45.544;9.232;2022-11-12T13:40:56;11.68;;;8.98;;
40659;SDS011;26753;45.544;9.232;2022-11-12T13:44:05;11.35;;;9.07;;
40659;SDS011;26753;45.544;9.232;2022-11-12T13:46:37;15.25;;;9.68;;
40659;SDS011;26753;45.544;9.232;2022-11-12T13:49:13;15.27;;;9.40;;
40659;SDS011;26753;45.544;9.232;2022-11-12T13:51:52;16.58;;;9.70;;
40659;SDS011;26753;45.544;9.232;2022-11-12T13:57:30;23.98;;;12.43;;
40659;SDS011;26753;45.544;9.232;2022-11-12T14:00:18;20.85;;;10.73;;
40659;SDS011;26753;45.544;9.232;2022-11-12T14:03:04;20.58;;;11.57;;
40659;SDS011;26753;45.544;9.232;2022-11-12T14:05:32;16.20;;;10.90;;
40659;SDS011;26753;45.544;9.232;2022-11-12T14:11:18;15.63;;;10.48;;
40659;SDS011;26753;45.544;9.232;2022-11-12T14:25:33;18.30;;;11.57;;
40659;SDS011;26753;45.544;9.232;2022-11-12T14:28:31;15.68;;;11.68;;
40659;SDS011;26753;45.544;9.232;2022-11-12T14:31:11;16.88;;;12.23;;
40659;SDS011;26753;45.544;9.232;2022-11-12T14:33:39;16.20;;;11.55;;
40659;SDS011;26753;45.544;9.232;2022-11-12T14:36:12;17.42;;;12.25;;
40659;SDS011;26753;45.544;9.232;2022-11-12T14:38:43;17.65;;;12.43;;
40659;SDS011;26753;45.544;9.232;2022-11-12T14:44:13;15.10;;;11.73;;
40659;SDS011;26753;45.544;9.232;2022-11-12T14:46:48;16.60;;;12.80;;
40659;SDS011;26753;45.544;9.232;2022-11-12T14:49:42;17.33;;;13.27;;
40659;SDS011;26753;45.544;9.232;2022-11-12T14:55:36;19.25;;;13.73;;
40659;SDS011;26753;45.544;9.232;2022-11-12T14:58:25;20.38;;;14.32;;
40659;SDS011;26753;45.544;9.232;2022-11-12T15:00:53;20.05;;;13.90;;
40659;SDS011;26753;45.544;9.232;2022-11-12T15:03:25;21.05;;;14.43;;
40659;SDS011;26753;45.544;9.232;2022-11-12T15:06:21;19.10;;;13.90;;
40659;SDS011;26753;45.544;9.232;2022-11-12T15:09:07;19.58;;;14.13;;
40659;SDS011;26753;45.544;9.232;2022-11-12T15:11:35;25.40;;;15.75;;
40659;SDS011;26753;45.544;9.232;2022-11-12T15:17:46;22.77;;;15.77;;
40659;SDS011;26753;45.544;9.232;2022-11-12T15:27:41;21.48;;;15.63;;
40659;SDS011;26753;45.544;9.232;2022-11-12T15:30:43;20.63;;;15.07;;
40659;SDS011;26753;45.544;9.232;2022-11-12T15:33:44;25.73;;;16.30;;
40659;SDS011;26753;45.544;9.232;2022-11-12T15:36:16;21.23;;;15.55;;
40659;SDS011;26753;45.544;9.232;2022-11-12T15:39:10;21.10;;;16.42;;
40659;SDS011;26753;45.544;9.232;2022-11-12T15:44:34;25.77;;;16.83;;
40659;SDS011;26753;45.544;9.232;2022-11-12T15:50:25;24.73;;;16.85;;
40659;SDS011;26753;45.544;9.232;2022-11-12T15:52:53;21.60;;;16.70;;
40659;SDS011;26753;45.544;9.232;2022-11-12T15:55:22;26.10;;;18.60;;
40659;SDS011;26753;45.544;9.232;2022-11-12T15:58:25;22.00;;;16.60;;
40659;SDS011;26753;45.544;9.232;2022-11-12T16:01:09;28.77;;;18.08;;
40659;SDS011;26753;45.544;9.232;2022-11-12T16:04:17;25.10;;;18.13;;
40659;SDS011;26753;45.544;9.232;2022-11-12T16:10:20;25.95;;;18.45;;
40659;SDS011;26753;45.544;9.232;2022-11-12T16:12:57;27.45;;;19.25;;
40659;SDS011;26753;45.544;9.232;2022-11-12T16:15:24;27.23;;;19.23;;
40659;SDS011;26753;45.544;9.232;2022-11-12T16:17:50;27.48;;;18.85;;
40659;SDS011;26753;45.544;9.232;2022-11-12T16:20:21;29.17;;;20.45;;
40659;SDS011;26753;45.544;9.232;2022-11-12T16:22:52;27.02;;;19.50;;
40659;SDS011;26753;45.544;9.232;2022-11-12T16:25:20;26.45;;;19.05;;
40659;SDS011;26753;45.544;9.232;2022-11-12T16:27:46;29.50;;;20.00;;
40659;SDS011;26753;45.544;9.232;2022-11-12T16:30:22;29.92;;;20.42;;
40659;SDS011;26753;45.544;9.232;2022-11-12T16:33:00;26.45;;;20.13;;
40659;SDS011;26753;45.544;9.232;2022-11-12T16:35:26;29.10;;;21.45;;
40659;SDS011;26753;45.544;9.232;2022-11-12T16:37:54;30.40;;;22.40;;
40659;SDS011;26753;45.544;9.232;2022-11-12T16:40:26;29.73;;;21.33;;
40659;SDS011;26753;45.544;9.232;2022-11-12T16:42:53;30.60;;;20.48;;
40659;SDS011;26753;45.544;9.232;2022-11-12T16:45:24;33.47;;;22.48;;
40659;SDS011;26753;45.544;9.232;2022-11-12T16:47:57;37.28;;;23.02;;
40659;SDS011;26753;45.544;9.232;2022-11-12T16:50:28;33.80;;;23.38;;
40659;SDS011;26753;45.544;9.232;2022-11-12T16:52:54;41.08;;;24.60;;
40659;SDS011;26753;45.544;9.232;2022-11-12T16:55:21;39.65;;;25.80;;
40659;SDS011;26753;45.544;9.232;2022-11-12T16:57:47;37.45;;;25.38;;
40659;SDS011;26753;45.544;9.232;2022-11-12T17:00:13;39.70;;;24.83;;
40659;SDS011;26753;45.544;9.232;2022-11-12T17:02:43;42.10;;;25.63;;
40659;SDS011;26753;45.544;9.232;2022-11-12T17:05:12;40.13;;;25.80;;
40659;SDS011;26753;45.544;9.232;2022-11-12T17:07:56;34.90;;;24.02;;